Time;durP1;ratioP1;P1;durP2;ratioP2;P2;SDS_P1;SDS_P2;PMS_P1;PMS_P2;Temp;Humidity;BMP_temperature;BMP_pressure;BME280_temperature;BME280_humidity;BME280_pressure;Samples;Min_cycle;Max_cycle;Signal;HPM_P1;HPM_P2
2023/03/05 00:10:09;;;;;;;2.40;0.20;;;3.40;99.90;;;;;;6217079;23;20016;-92
2023/03/05 00:12:36;;;;;;;0.65;0.10;;;3.40;99.90;;;;;;6142762;23;20079;-93
2023/03/05 00:15:02;;;;;;;2.03;0.27;;;3.40;99.90;;;;;;6166711;23;20017;-92
2023/03/05 00:17:31;;;;;;;3.37;0.60;;;3.40;99.90;;;;;;6166676;23;20021;-92
2023/03/05 00:19:57;;;;;;;1.33;0.30;;;3.30;99.90;;;;;;6142967;23;20088;-92
2023/03/05 01:03:50;;;;;;;2.53;0.35;;;3.50;99.90;;;;;;6186655;23;20377;-92
2023/03/05 01:06:16;;;;;;;3.28;0.40;;;3.50;99.90;;;;;;6162083;23;20024;-94
2023/03/05 01:09:23;;;;;;;2.25;0.30;;;3.50;99.90;;;;;;6140883;23;20485;-95
2023/03/05 08:34:09;;;;;;;2.00;0.13;;;4.30;99.90;;;;;;6212047;23;20466;-90
2023/03/05 08:36:50;;;;;;;;;;;;;;;;;;;;;
2023/03/05 08:45:08;;;;;;;1.92;0.20;;;4.50;99.90;;;;;;6217329;23;20090;-91
2023/03/05 08:47:33;;;;;;;0.55;0.38;;;4.60;99.90;;;;;;6166349;23;20028;-92
2023/03/05 08:49:59;;;;;;;1.17;0.10;;;4.70;99.90;;;;;;6166172;23;20013;-91
2023/03/05 08:52:30;;;;;;;1.60;0.20;;;4.70;99.90;;;;;;6166515;23;20078;-92
2023/03/05 08:54:56;;;;;;;1.58;0.10;;;4.70;99.90;;;;;;6142249;23;20024;-90
2023/03/05 08:57:22;;;;;;;0.40;0.13;;;4.70;99.90;;;;;;6166582;23;20099;-90
2023/03/05 08:59:48;;;;;;;2.47;0.20;;;4.70;99.90;;;;;;6166161;23;20057;-91
2023/03/05 09:02:14;;;;;;;1.17;0.15;;;4.70;99.90;;;;;;6165926;23;20017;-91
2023/03/05 09:04:42;;;;;;;2.53;0.45;;;4.80;99.90;;;;;;6166554;23;20568;-92
2023/03/05 09:07:08;;;;;;;0.03;0.00;;;4.80;99.90;;;;;;6165927;23;20041;-92
2023/03/05 09:09:36;;;;;;;0.13;0.13;;;4.80;99.90;;;;;;6166688;23;20012;-93
2023/03/05 09:19:51;;;;;;;0.47;0.00;;;4.80;99.90;;;;;;6217105;23;20024;-92
2023/03/05 09:22:27;;;;;;;1.00;0.00;;;4.80;99.90;;;;;;6166272;23;20027;-92
2023/03/05 09:25:01;;;;;;;4.90;0.30;;;4.80;99.90;;;;;;6165808;23;20024;-91
2023/03/05 09:27:38;;;;;;;2.40;0.20;;;4.80;99.90;;;;;;6166210;23;20016;-91
2023/03/05 09:30:05;;;;;;;1.10;0.10;;;4.90;99.90;;;;;;6165643;23;20438;-90
2023/03/05 09:41:26;;;;;;;0.85;0.10;;;5.10;99.90;;;;;;6214027;23;20036;-92
2023/03/05 09:43:53;;;;;;;0.10;0.05;;;5.20;99.90;;;;;;6171325;23;20027;-90
2023/03/05 09:46:51;;;;;;;0.40;0.10;;;5.30;99.90;;;;;;6165891;23;20017;-91
2023/03/05 09:49:41;;;;;;;1.42;0.50;;;5.40;99.90;;;;;;6165724;23;20021;-91
2023/03/05 09:52:50;;;;;;;5.20;0.30;;;5.50;99.90;;;;;;6166100;23;20106;-90
2023/03/05 10:13:29;;;;;;;1.75;0.30;;;5.70;99.90;;;;;;6216863;23;20024;-91
2023/03/05 10:16:25;;;;;;;0.40;0.10;;;5.80;99.90;;;;;;6165567;23;20027;-92
2023/03/05 10:19:11;;;;;;;0.40;0.10;;;5.70;99.90;;;;;;6166000;23;20021;-91
2023/03/05 10:21:55;;;;;;;1.90;0.40;;;5.70;99.90;;;;;;6165719;23;20455;-89
2023/03/05 10:25:03;;;;;;;1.88;0.65;;;5.60;99.90;;;;;;6165447;23;20024;-90
2023/03/05 10:27:38;;;;;;;1.50;0.20;;;5.70;99.90;;;;;;6150969;23;20016;-90
2023/03/05 10:30:24;;;;;;;2.33;0.25;;;5.80;99.90;;;;;;6165384;23;20024;-89
2023/03/05 10:32:56;;;;;;;0.77;0.20;;;6.00;99.90;;;;;;6165079;23;20021;-90
2023/03/05 10:35:39;;;;;;;0.35;0.00;;;6.00;99.90;;;;;;6165233;23;20512;-91
2023/03/05 10:38:35;;;;;;;1.20;0.10;;;6.10;99.90;;;;;;6165173;23;20095;-89
2023/03/05 11:27:47;;;;;;;0.80;0.13;;;6.50;99.90;;;;;;6217026;23;20028;-87
2023/03/05 11:30:28;;;;;;;1.20;0.20;;;6.50;99.90;;;;;;6166968;23;20024;-91
2023/03/05 11:33:24;;;;;;;0.30;0.10;;;6.40;99.90;;;;;;6167417;23;20019;-93
2023/03/05 12:01:49;;;;;;;3.95;0.40;;;6.30;99.90;;;;;;6216275;23;20382;-93
2023/03/05 12:04:33;;;;;;;0.73;0.20;;;6.40;99.90;;;;;;6142851;23;20075;-94
2023/03/05 13:09:30;;;;;;;1.85;0.20;;;7.20;99.90;;;;;;6216500;23;20015;-92
2023/03/05 13:11:59;;;;;;;0.93;0.17;;;7.20;99.90;;;;;;6024137;23;20495;-92
2023/03/05 14:47:41;;;;;;;2.88;0.20;;;6.20;99.90;;;;;;6190977;23;20028;-91
2023/03/05 14:50:28;;;;;;;3.67;1.33;;;6.00;99.90;;;;;;6164813;23;20116;-90
2023/03/05 14:53:00;;;;;;;5.05;1.08;;;5.90;99.90;;;;;;6129243;23;20482;-90
2023/03/05 14:55:47;;;;;;;3.75;0.80;;;5.70;99.90;;;;;;6104901;23;20022;-91
2023/03/05 14:58:36;;;;;;;5.78;1.77;;;5.60;99.90;;;;;;6105278;23;20025;-93
2023/03/05 15:01:12;;;;;;;8.35;2.97;;;5.60;99.90;;;;;;6103880;23;20022;-91
2023/03/05 15:03:47;;;;;;;7.57;1.95;;;5.60;99.90;;;;;;6083861;23;20040;-91
2023/03/05 15:06:26;;;;;;;16.08;5.75;;;5.60;99.90;;;;;;6105288;23;20021;-91
2023/03/05 15:08:55;;;;;;;9.88;2.90;;;5.50;99.90;;;;;;6129594;23;20018;-92
2023/03/05 15:11:33;;;;;;;7.80;2.20;;;5.50;99.90;;;;;;6105837;23;20018;-92
2023/03/05 15:14:08;;;;;;;3.58;1.20;;;5.50;99.90;;;;;;6105127;23;20061;-91
2023/03/05 15:16:35;;;;;;;2.25;0.80;;;5.60;99.90;;;;;;6061232;23;20388;-91
2023/03/05 15:21:48;;;;;;;2.55;0.60;;;5.70;99.90;;;;;;6206680;23;20075;-91
2023/03/05 15:24:17;;;;;;;6.13;1.92;;;5.70;99.90;;;;;;6141073;23;20028;-91
2023/03/05 15:27:19;;;;;;;13.07;3.92;;;5.60;99.90;;;;;;6140596;23;20017;-92
2023/03/05 15:29:45;;;;;;;5.00;1.55;;;5.60;99.90;;;;;;6120238;23;20025;-90
2023/03/05 15:32:11;;;;;;;15.20;7.37;;;5.50;99.90;;;;;;6164459;23;20021;-91
2023/03/05 15:34:36;;;;;;;3.42;1.00;;;5.60;99.90;;;;;;6164735;23;20013;-91
2023/03/05 15:37:06;;;;;;;6.67;3.03;;;5.60;99.90;;;;;;6164626;23;20099;-91
2023/03/05 15:39:32;;;;;;;4.10;1.80;;;5.60;99.90;;;;;;6165072;23;20056;-91
2023/03/05 15:47:09;;;;;;;11.35;7.63;;;5.70;99.90;;;;;;6185221;23;20076;-90
2023/03/05 15:52:13;;;;;;;1.02;0.47;;;5.70;99.90;;;;;;6214363;23;20036;-89
2023/03/05 15:54:44;;;;;;;2.13;0.60;;;5.80;99.90;;;;;;6164336;23;20028;-91
2023/03/05 15:57:13;;;;;;;1.63;0.40;;;5.90;99.90;;;;;;6165143;23;20063;-90
2023/03/05 15:59:39;;;;;;;1.20;0.30;;;6.00;99.90;;;;;;6164299;23;20020;-91
2023/03/05 16:02:14;;;;;;;3.15;0.50;;;6.00;99.90;;;;;;6189132;23;20009;-91
2023/03/05 16:04:43;;;;;;;5.10;1.70;;;6.00;99.90;;;;;;6164156;23;20028;-92
2023/03/05 16:07:10;;;;;;;3.58;1.15;;;6.00;99.90;;;;;;6164559;23;20027;-90
2023/03/05 16:09:42;;;;;;;1.70;0.52;;;5.90;99.90;;;;;;6166366;23;20020;-91
2023/03/05 16:12:14;;;;;;;0.93;0.30;;;5.90;99.90;;;;;;6165670;23;20023;-90
2023/03/05 16:14:44;;;;;;;3.28;0.52;;;5.90;99.90;;;;;;6166079;23;20017;-89
2023/03/05 16:17:10;;;;;;;3.70;1.20;;;5.80;99.90;;;;;;6166259;23;20067;-89
2023/03/05 16:19:43;;;;;;;0.93;0.20;;;5.80;99.90;;;;;;6190993;23;20017;-89
2023/03/05 16:22:19;;;;;;;1.30;0.60;;;5.70;99.90;;;;;;6190727;23;20012;-92
2023/03/05 16:24:45;;;;;;;1.25;0.40;;;5.60;99.90;;;;;;6142399;23;20012;-89
2023/03/05 16:27:13;;;;;;;3.47;0.83;;;5.60;99.90;;;;;;6141987;23;20483;-89
2023/03/05 16:29:39;;;;;;;1.33;0.30;;;5.50;99.90;;;;;;6166036;23;20017;-90
2023/03/05 16:32:05;;;;;;;0.40;0.20;;;5.50;99.90;;;;;;6167161;23;20028;-90
2023/03/05 16:34:33;;;;;;;1.73;0.35;;;5.40;99.90;;;;;;6166260;23;20021;-89
2023/03/05 16:37:03;;;;;;;2.22;0.30;;;5.40;99.90;;;;;;6166006;23;20013;-90
2023/03/05 16:39:32;;;;;;;1.45;0.45;;;5.40;99.90;;;;;;6165765;23;20051;-90
2023/03/05 16:41:58;;;;;;;4.07;0.68;;;5.30;99.90;;;;;;6142058;23;20462;-90
2023/03/05 16:44:24;;;;;;;1.88;0.70;;;5.30;99.90;;;;;;6141861;23;20110;-91
2023/03/05 16:46:55;;;;;;;1.10;0.20;;;5.30;99.90;;;;;;6166118;23;20390;-89
2023/03/05 16:49:20;;;;;;;0.52;0.20;;;5.20;99.90;;;;;;6165933;23;20017;-92
2023/03/05 16:51:47;;;;;;;0.80;0.27;;;5.20;99.90;;;;;;6165512;23;20020;-89
2023/03/05 16:57:01;;;;;;;1.60;0.50;;;5.20;99.90;;;;;;6187357;23;20025;-90
2023/03/05 16:59:27;;;;;;;0.67;0.50;;;5.20;99.90;;;;;;6112045;23;20025;-90
2023/03/05 17:01:53;;;;;;;2.53;0.47;;;5.20;99.90;;;;;;6112097;23;20075;-91
2023/03/05 17:04:21;;;;;;;0.67;0.27;;;5.10;99.90;;;;;;6136223;23;20028;-89
2023/03/05 17:06:48;;;;;;;3.90;0.45;;;5.10;99.90;;;;;;6136195;23;20100;-89
2023/03/05 17:09:14;;;;;;;2.60;0.22;;;5.10;99.90;;;;;;6160761;23;20013;-91
2023/03/05 17:11:42;;;;;;;0.32;0.10;;;5.10;99.90;;;;;;6136119;23;20076;-90
2023/03/05 17:14:08;;;;;;;2.85;0.70;;;5.10;99.90;;;;;;6111630;23;20378;-91
2023/03/05 17:16:34;;;;;;;2.00;0.63;;;5.00;99.90;;;;;;6111567;23;20096;-87
2023/03/05 17:18:59;;;;;;;3.83;0.43;;;5.00;99.90;;;;;;6160253;23;20021;-90
2023/03/05 17:21:25;;;;;;;1.87;0.70;;;5.00;99.90;;;;;;6160385;23;20021;-91
2023/03/05 17:23:51;;;;;;;1.73;0.53;;;4.90;99.90;;;;;;6111484;23;20013;-90
2023/03/05 17:26:18;;;;;;;2.28;1.10;;;4.90;99.90;;;;;;6111578;23;20073;-90
2023/03/05 17:28:44;;;;;;;4.93;2.00;;;4.90;99.90;;;;;;6135834;23;20021;-92
2023/03/05 17:31:12;;;;;;;3.43;1.60;;;4.90;99.90;;;;;;6136058;23;20024;-91
2023/03/05 17:33:38;;;;;;;3.05;1.30;;;4.90;99.90;;;;;;6160559;23;20257;-91
2023/03/05 17:36:05;;;;;;;3.72;1.05;;;4.80;99.90;;;;;;6160499;23;20095;-91
2023/03/05 17:38:31;;;;;;;4.82;1.83;;;4.80;99.90;;;;;;6136199;23;20044;-90
2023/03/05 17:40:59;;;;;;;1.57;0.87;;;4.70;99.90;;;;;;6111719;23;20443;-91
2023/03/05 17:43:27;;;;;;;1.90;0.93;;;4.70;99.90;;;;;;6136249;23;20439;-91
2023/03/05 18:50:40;;;;;;;0.93;0.50;;;4.00;99.90;;;;;;6215540;23;20028;-91
2023/03/05 18:53:11;;;;;;;3.17;0.88;;;4.00;99.90;;;;;;6165389;23;20021;-91
2023/03/05 18:55:47;;;;;;;;;;;;;;;;;;;;;
2023/03/05 18:58:14;;;;;;;4.38;1.45;;;4.00;99.90;;;;;;6188361;23;20017;-91
2023/03/05 19:00:41;;;;;;;3.35;1.02;;;4.00;99.90;;;;;;6140841;23;20025;-91
2023/03/05 19:03:07;;;;;;;1.08;0.57;;;4.00;99.90;;;;;;6165249;23;20016;-93
2023/03/05 19:05:35;;;;;;;4.50;0.60;;;4.00;99.90;;;;;;6164980;23;20013;-94
2023/03/05 19:08:01;;;;;;;3.05;0.82;;;4.00;99.90;;;;;;6165549;23;20084;-90
2023/03/05 19:10:27;;;;;;;2.90;0.50;;;4.00;99.90;;;;;;6140613;23;20009;-93
2023/03/05 19:13:06;;;;;;;2.53;0.90;;;4.00;99.90;;;;;;6165006;23;20083;-89
2023/03/05 19:15:40;;;;;;;3.70;0.50;;;4.00;99.90;;;;;;6189800;23;20075;-93
2023/03/05 19:18:06;;;;;;;1.42;0.40;;;4.00;99.90;;;;;;6165169;23;20013;-90
2023/03/05 19:20:31;;;;;;;2.23;0.50;;;3.90;99.90;;;;;;6116366;23;20098;-91
2023/03/05 19:22:57;;;;;;;22.07;5.87;;;3.90;99.90;;;;;;6140680;23;20016;-90
2023/03/05 19:25:23;;;;;;;15.73;5.03;;;4.00;99.90;;;;;;6116188;23;20091;-91
2023/03/05 19:27:49;;;;;;;8.87;3.20;;;4.00;99.90;;;;;;6140546;23;20020;-91
2023/03/05 19:30:43;;;;;;;7.38;2.65;;;3.90;99.90;;;;;;6115786;23;20078;-93
2023/03/05 19:33:08;;;;;;;11.93;4.22;;;3.90;99.90;;;;;;6164879;23;20111;-92
2023/03/05 19:36:24;;;;;;;11.60;4.17;;;4.00;99.90;;;;;;6140312;23;20041;-93
2023/03/05 19:38:50;;;;;;;9.77;4.10;;;4.00;99.90;;;;;;6145329;23;20078;-93
2023/03/05 19:41:18;;;;;;;2.17;0.90;;;3.90;99.90;;;;;;6165109;23;20013;-93
2023/03/05 19:43:46;;;;;;;3.17;1.10;;;3.90;99.90;;;;;;6166206;23;20087;-92
2023/03/05 19:46:12;;;;;;;1.23;0.60;;;3.90;99.90;;;;;;6166710;23;20458;-91
2023/03/05 19:48:41;;;;;;;9.07;3.73;;;3.90;99.90;;;;;;6166970;23;20019;-93
2023/03/05 19:51:15;;;;;;;1.83;0.90;;;3.90;99.90;;;;;;6166584;23;20053;-94
2023/03/05 19:53:48;;;;;;;2.63;0.73;;;3.90;99.90;;;;;;6168351;23;20024;-92
2023/03/05 19:56:30;;;;;;;3.40;0.50;;;4.00;99.90;;;;;;6118696;23;20055;-94
2023/03/05 19:58:55;;;;;;;2.20;0.70;;;4.00;99.90;;;;;;6142576;23;20044;-92
2023/03/05 20:01:47;;;;;;;2.03;0.50;;;4.00;99.90;;;;;;6166610;23;20027;-93
2023/03/05 20:04:23;;;;;;;3.15;0.50;;;4.00;99.90;;;;;;6166654;23;20553;-92
2023/03/05 20:06:49;;;;;;;1.55;0.50;;;4.00;99.90;;;;;;6191249;23;20017;-92
2023/03/05 20:09:18;;;;;;;5.72;1.88;;;4.00;99.90;;;;;;6166770;23;20017;-94
2023/03/05 20:11:50;;;;;;;11.27;4.30;;;4.00;99.90;;;;;;6191592;23;20020;-91
2023/03/05 20:14:18;;;;;;;2.08;0.70;;;4.10;99.90;;;;;;6166694;23;20020;-90
2023/03/05 20:16:44;;;;;;;3.90;1.13;;;4.00;99.90;;;;;;6167001;23;20111;-93
2023/03/05 20:19:15;;;;;;;4.67;1.00;;;4.00;99.90;;;;;;6166636;23;20463;-93
2023/03/05 20:21:41;;;;;;;7.97;3.05;;;4.00;99.90;;;;;;6166677;23;20052;-94
2023/03/05 20:24:10;;;;;;;4.93;1.90;;;4.00;99.90;;;;;;6166563;23;20023;-92
2023/03/05 20:26:37;;;;;;;1.33;0.70;;;4.00;99.90;;;;;;6166005;23;20271;-89
2023/03/05 20:29:12;;;;;;;1.48;0.43;;;4.00;99.90;;;;;;6166685;23;20016;-92
2023/03/05 20:31:40;;;;;;;1.45;0.63;;;3.90;99.90;;;;;;6143131;23;20019;-93
2023/03/05 20:34:12;;;;;;;2.33;0.60;;;4.00;99.90;;;;;;6142299;23;20470;-91
2023/03/05 20:36:38;;;;;;;0.85;0.45;;;3.90;99.90;;;;;;6166599;23;20350;-91
2023/03/05 20:39:05;;;;;;;2.42;0.70;;;4.00;99.90;;;;;;6142037;23;20046;-93
2023/03/05 20:41:33;;;;;;;2.90;0.95;;;3.90;99.90;;;;;;6166013;23;20020;-90
2023/03/05 20:43:59;;;;;;;3.67;0.95;;;4.00;99.90;;;;;;6166560;23;20160;-90
2023/03/05 20:47:11;;;;;;;2.17;0.73;;;3.90;99.90;;;;;;6166362;23;20387;-93
2023/03/05 20:49:37;;;;;;;1.23;0.50;;;4.00;99.90;;;;;;6166133;23;20017;-89
2023/03/05 20:52:03;;;;;;;2.43;0.83;;;3.90;99.90;;;;;;6147232;23;20394;-91
2023/03/05 20:54:47;;;;;;;2.00;0.67;;;4.00;99.90;;;;;;6136511;23;20455;-92
2023/03/05 20:57:16;;;;;;;4.18;1.80;;;3.90;99.90;;;;;;6136928;23;20450;-90
2023/03/05 21:04:52;;;;;;;2.75;0.75;;;3.90;99.90;;;;;;6187476;23;20024;-93
2023/03/05 21:07:18;;;;;;;5.38;1.00;;;3.90;99.90;;;;;;6112291;23;20025;-89
2023/03/05 21:09:44;;;;;;;4.53;1.20;;;3.90;99.90;;;;;;6112117;23;20420;-91
2023/03/05 21:12:10;;;;;;;2.80;1.30;;;3.90;99.90;;;;;;6136606;23;20021;-94
2023/03/05 21:14:36;;;;;;;1.80;0.97;;;3.90;99.90;;;;;;6112050;23;20016;-92
2023/03/05 21:17:07;;;;;;;2.65;1.08;;;3.90;99.90;;;;;;6136623;23;20021;-91
2023/03/05 21:19:33;;;;;;;1.30;0.60;;;3.90;99.90;;;;;;6136226;23;20025;-88
2023/03/05 21:21:59;;;;;;;1.05;0.40;;;3.90;99.90;;;;;;6136622;23;20021;-91
2023/03/05 21:32:43;;;;;;;1.73;0.40;;;3.90;99.90;;;;;;6186233;23;20411;-91
2023/03/05 21:35:17;;;;;;;3.03;0.70;;;3.90;99.90;;;;;;6111578;23;20017;-88
2023/03/05 21:42:54;;;;;;;0.88;0.28;;;4.00;99.90;;;;;;6215713;23;20342;-93
2023/03/05 21:45:23;;;;;;;0.93;0.35;;;3.90;99.90;;;;;;6165841;23;20104;-91
2023/03/05 21:47:51;;;;;;;1.25;0.50;;;3.90;99.90;;;;;;6165728;23;20526;-90
2023/03/05 21:50:20;;;;;;;4.47;1.23;;;4.00;99.90;;;;;;6165526;23;20017;-90
2023/03/05 21:52:52;;;;;;;2.75;0.90;;;3.90;99.90;;;;;;6165835;23;20021;-94
